Time;durP1;ratioP1;P1;durP2;ratioP2;P2;SDS_P1;SDS_P2;PMS_P1;PMS_P2;Temp;Humidity;BMP_temperature;BMP_pressure;BME280_temperature;BME280_humidity;BME280_pressure;Samples;Min_cycle;Max_cycle;Signal;HPM_P1;HPM_P2
2022/12/22 03:25:55;;;;;;;26.15;16.82;;;;;;;2.85;81.78;96871.67;1755058;80;26082;-74
2022/12/22 03:28:27;;;;;;;28.00;17.07;;;;;;;2.83;81.79;96877.67;1755336;80;25825;-73
2022/12/22 03:31:04;;;;;;;23.75;16.10;;;;;;;2.83;81.83;96877.67;1755511;80;25846;-75
2022/12/22 03:33:31;;;;;;;27.93;16.12;;;;;;;2.83;81.81;96876.34;1749804;80;26466;-72
2022/12/22 03:36:00;;;;;;;22.22;15.23;;;;;;;2.83;81.81;96884.34;1737033;80;27358;-74
2022/12/22 03:38:27;;;;;;;26.37;15.35;;;;;;;2.82;81.95;96888.84;1755269;80;25821;-73
2022/12/22 03:40:54;;;;;;;32.17;18.98;;;;;;;2.82;81.92;96891.51;1755330;80;25729;-73
2022/12/22 03:48:35;;;;;;;28.10;16.85;;;;;;;2.81;82.14;96892.51;1787260;78;27389;-72
2022/12/22 03:51:01;;;;;;;25.37;15.98;;;;;;;2.83;82.15;96891.00;1783604;77;25699;-73
2022/12/22 03:53:28;;;;;;;30.92;18.40;;;;;;;2.85;82.06;96887.67;1795347;78;25734;-73
2022/12/22 03:55:55;;;;;;;42.95;22.22;;;;;;;2.85;82.00;96885.00;1827825;78;26502;-71
2022/12/22 03:58:21;;;;;;;41.53;22.82;;;;;;;2.86;82.04;96888.00;1827427;77;25715;-73
2022/12/22 04:00:48;;;;;;;42.23;22.82;;;;;;;2.85;82.10;96883.67;1824328;77;27388;-72
2022/12/22 04:03:15;;;;;;;36.17;20.68;;;;;;;2.84;82.23;96882.84;1801326;77;25826;-70
2022/12/22 04:05:41;;;;;;;36.05;20.50;;;;;;;2.87;82.34;96889.66;1783637;77;25674;-70
2022/12/22 04:08:08;;;;;;;35.35;19.75;;;;;;;2.91;82.41;96881.61;1783622;77;25714;-71
2022/12/22 04:13:20;;;;;;;29.98;17.85;;;;;;;3.00;82.49;96889.08;1786572;77;27452;-71
2022/12/22 04:15:46;;;;;;;31.85;18.75;;;;;;;3.06;82.54;96891.86;1783659;77;25650;-70
2022/12/22 04:18:13;;;;;;;26.70;17.75;;;;;;;3.08;82.49;96887.19;1783625;77;25738;-70
2022/12/22 04:20:40;;;;;;;26.27;16.65;;;;;;;3.14;82.53;96886.99;1793794;77;25702;-70
2022/12/22 04:23:06;;;;;;;24.57;16.70;;;;;;;3.17;82.47;96890.61;1812462;77;25815;-71
2022/12/22 04:25:33;;;;;;;26.48;16.57;;;;;;;3.19;82.43;96888.10;1820894;77;27403;-71
2022/12/22 04:27:59;;;;;;;22.07;15.20;;;;;;;3.18;82.40;96886.44;1797798;77;25674;-71
2022/12/22 04:30:26;;;;;;;22.80;14.35;;;;;;;3.17;82.34;96890.11;1797886;77;25695;-71
2022/12/22 04:32:52;;;;;;;24.85;15.28;;;;;;;3.15;82.30;96889.45;1797860;77;26519;-71
2022/12/22 04:35:19;;;;;;;25.37;15.13;;;;;;;3.16;82.30;96883.11;1818889;77;25588;-71
2022/12/22 04:37:46;;;;;;;25.52;15.68;;;;;;;3.18;82.33;96881.11;1822404;77;28163;-71
2022/12/22 04:40:12;;;;;;;24.87;15.38;;;;;;;3.19;82.32;96877.44;1797847;77;25738;-71
2022/12/22 04:42:39;;;;;;;25.50;16.30;;;;;;;3.22;82.33;96881.09;1797909;77;25705;-70
2022/12/22 04:45:08;;;;;;;28.30;17.05;;;;;;;3.24;82.34;96876.41;1797976;77;25707;-70
2022/12/22 04:47:34;;;;;;;25.70;16.25;;;;;;;3.26;82.29;96877.53;1797785;77;25702;-70
2022/12/22 04:50:01;;;;;;;29.67;17.85;;;;;;;3.26;82.22;96881.03;1797851;77;28183;-73
2022/12/22 04:52:27;;;;;;;30.02;18.23;;;;;;;3.25;82.13;96877.24;1797742;77;25494;-71
2022/12/22 04:54:54;;;;;;;32.05;18.92;;;;;;;3.24;82.11;96874.24;1817675;77;25670;-71
2022/12/22 04:57:21;;;;;;;29.52;18.45;;;;;;;3.23;82.10;96874.75;1830511;77;25779;-71
2022/12/22 04:59:48;;;;;;;29.07;17.50;;;;;;;3.23;82.08;96870.75;1823158;77;25658;-73
2022/12/22 05:02:15;;;;;;;28.73;17.02;;;;;;;3.22;82.04;96870.41;1797749;77;27361;-70
2022/12/22 05:04:41;;;;;;;29.37;18.57;;;;;;;3.19;82.07;96869.43;1820734;77;25675;-70
2022/12/22 05:07:08;;;;;;;30.70;18.45;;;;;;;3.21;82.13;96878.09;1810618;77;25728;-71
2022/12/22 05:09:35;;;;;;;27.75;16.77;;;;;;;3.22;82.14;96871.75;1807811;77;25689;-71
2022/12/22 05:12:53;;;;;;;27.80;17.52;;;;;;;3.23;82.05;96872.08;1807755;77;25700;-70
2022/12/22 05:14:30;;;;;;;30.70;18.90;;;;;;;3.21;82.01;96867.42;1793835;77;27399;-71
2022/12/22 05:16:56;;;;;;;47.58;25.52;;;;;;;3.16;82.00;96864.45;1804831;77;25417;-72
2022/12/22 05:19:23;;;;;;;34.58;21.70;;;;;;;3.17;82.09;96867.44;1813279;77;25708;-70
2022/12/22 05:21:50;;;;;;;50.98;24.87;;;;;;;3.15;81.97;96866.78;1819964;77;25791;-70
2022/12/22 05:24:17;;;;;;;55.98;27.48;;;;;;;3.09;81.95;96866.17;1794947;77;25886;-70
2022/12/22 05:26:43;;;;;;;52.27;29.10;;;;;;;3.09;82.09;96870.17;1819920;77;27405;-71
2022/12/22 05:29:10;;;;;;;52.35;27.70;;;;;;;3.08;82.13;96864.52;1827884;77;25788;-70
2022/12/22 05:31:37;;;;;;;60.50;29.18;;;;;;;3.05;82.17;96866.20;1806292;77;25716;-71
2022/12/22 05:34:03;;;;;;;58.52;27.37;;;;;;;3.04;82.23;96861.87;1795290;77;25665;-74
2022/12/22 05:36:30;;;;;;;43.92;22.50;;;;;;;3.02;82.22;96853.74;1814058;77;26560;-71
2022/12/22 05:38:56;;;;;;;46.95;21.07;;;;;;;3.03;82.22;96866.88;1799046;77;28145;-71
2022/12/22 05:41:23;;;;;;;50.20;22.15;;;;;;;2.98;82.20;96863.92;1795257;77;25719;-71
2022/12/22 05:43:50;;;;;;;37.30;19.85;;;;;;;2.95;82.29;96868.27;1798074;77;25752;-71
2022/12/22 05:46:16;;;;;;;41.42;21.17;;;;;;;2.90;82.40;96867.95;1826331;77;25686;-71
2022/12/22 05:48:43;;;;;;;35.13;18.85;;;;;;;2.88;82.38;96866.83;1848214;77;25476;-73
2022/12/22 05:51:10;;;;;;;33.75;17.87;;;;;;;2.85;82.41;96856.51;1856365;77;27356;-71
2022/12/22 05:53:37;;;;;;;38.42;20.15;;;;;;;2.82;82.48;96845.36;1857226;77;25730;-70
2022/12/22 05:56:06;;;;;;;43.98;23.47;;;;;;;2.81;82.58;96854.36;1855907;77;25774;-72
2022/12/22 05:58:36;;;;;;;74.65;36.10;;;;;;;2.81;82.68;96853.03;1857288;77;25723;-71
2022/12/22 06:01:03;;;;;;;75.47;39.33;;;;;;;2.79;82.65;96852.38;1855993;77;25418;-72
2022/12/22 06:03:30;;;;;;;68.90;39.42;;;;;;;2.78;82.64;96852.04;1804882;77;27403;-72
2022/12/22 06:05:58;;;;;;;63.30;34.98;;;;;;;2.78;82.64;96850.20;1827612;77;25668;-71
2022/12/22 06:08:26;;;;;;;37.40;22.37;;;;;;;2.79;82.66;96849.20;1820745;77;25715;-71
2022/12/22 06:10:57;;;;;;;38.17;21.17;;;;;;;2.81;82.68;96850.36;1812121;77;25721;-71
2022/12/22 06:13:25;;;;;;;41.80;21.15;;;;;;;2.82;82.74;96852.86;1804950;77;25413;-71
2022/12/22 06:15:52;;;;;;;37.93;22.30;;;;;;;2.84;82.77;96857.52;1827871;77;28030;-71
2022/12/22 06:18:19;;;;;;;37.93;21.45;;;;;;;2.89;82.82;96859.66;1824806;77;26896;-71
2022/12/22 06:20:46;;;;;;;38.15;21.90;;;;;;;2.89;82.72;96849.00;1795503;77;25718;-71
2022/12/22 06:23:12;;;;;;;51.37;28.00;;;;;;;2.86;82.59;96846.68;1819621;77;25690;-71
2022/12/22 06:25:39;;;;;;;45.83;24.30;;;;;;;2.86;82.58;96854.67;1830399;77;25854;-71
2022/12/22 06:28:06;;;;;;;40.08;22.95;;;;;;;2.85;82.66;96856.51;1810348;77;27403;-71
2022/12/22 06:30:32;;;;;;;41.73;23.25;;;;;;;2.88;82.77;96855.34;1819449;77;25680;-70
2022/12/22 06:33:00;;;;;;;99.17;57.80;;;;;;;2.90;82.72;96863.96;1807487;77;25618;-71
2022/12/22 06:35:26;;;;;;;59.38;36.20;;;;;;;2.87;82.55;96864.34;1811563;77;25717;-72
2022/12/22 06:37:53;;;;;;;51.02;28.65;;;;;;;2.84;82.50;96867.34;1820727;77;25743;-73
2022/12/22 06:40:23;;;;;;;48.05;25.08;;;;;;;2.81;82.57;96854.36;1816280;78;27399;-73
2022/12/22 06:43:09;;;;;;;49.30;24.80;;;;;;;2.81;82.62;96855.70;1757163;79;25837;-73
2022/12/22 06:45:39;;;;;;;43.17;23.65;;;;;;;2.78;82.61;96853.37;1774951;80;25808;-73
2022/12/22 06:48:08;;;;;;;46.77;26.10;;;;;;;2.79;82.66;96849.70;1756722;78;25792;-73
2022/12/22 06:50:34;;;;;;;46.83;27.98;;;;;;;2.80;82.65;96854.03;1773305;80;25503;-73
2022/12/22 06:53:03;;;;;;;44.05;26.62;;;;;;;2.78;82.68;96846.20;1764728;79;27311;-76
2022/12/22 06:55:30;;;;;;;43.58;25.50;;;;;;;2.77;82.73;96839.75;1770848;79;25797;-73
2022/12/22 06:57:57;;;;;;;45.67;27.73;;;;;;;2.77;82.68;96839.75;1758715;79;26572;-74
2022/12/22 07:00:24;;;;;;;44.15;28.98;;;;;;;2.77;82.72;96839.75;1773809;79;25719;-76
2022/12/22 07:02:50;;;;;;;43.58;26.85;;;;;;;2.80;82.84;96835.38;1777134;79;25889;-73
2022/12/22 07:05:17;;;;;;;44.53;27.48;;;;;;;2.82;82.83;96835.53;1755352;79;27490;-72
2022/12/22 07:07:44;;;;;;;41.40;26.33;;;;;;;2.82;82.77;96832.86;1775112;80;25806;-76
2022/12/22 07:10:11;;;;;;;38.63;24.80;;;;;;;2.83;82.81;96839.03;1764711;79;25683;-76
2022/12/22 07:12:38;;;;;;;43.15;25.30;;;;;;;2.83;82.78;96841.70;1769325;79;25851;-74
2022/12/22 07:15:07;;;;;;;42.50;25.52;;;;;;;2.85;82.81;96845.02;1820830;77;25653;-74
2022/12/22 07:17:34;;;;;;;50.58;26.80;;;;;;;2.87;82.82;96848.34;1797702;77;28035;-75
2022/12/22 07:20:00;;;;;;;47.20;28.47;;;;;;;2.89;82.77;96849.00;1820704;77;25675;-72
2022/12/22 07:22:27;;;;;;;47.13;30.57;;;;;;;2.91;82.78;96848.30;1793271;77;25662;-73
2022/12/22 07:24:54;;;;;;;46.55;29.48;;;;;;;2.95;82.79;96847.45;1797061;77;26562;-73
2022/12/22 07:27:20;;;;;;;48.55;30.62;;;;;;;2.94;82.80;96842.61;1794590;77;25620;-74
2022/12/22 07:29:47;;;;;;;50.52;31.62;;;;;;;2.95;82.83;96846.94;1780672;77;26819;-75
2022/12/22 07:32:14;;;;;;;50.92;31.55;;;;;;;2.98;82.82;96841.77;1780609;77;25634;-74
2022/12/22 07:34:40;;;;;;;52.78;32.25;;;;;;;2.99;82.76;96844.77;1780752;77;25747;-74
2022/12/22 07:37:07;;;;;;;50.80;31.00;;;;;;;3.01;82.81;96847.58;1780624;77;26273;-74
2022/12/22 07:39:33;;;;;;;62.55;36.08;;;;;;;3.03;82.67;96838.87;1780589;77;25465;-73
2022/12/22 07:44:45;;;;;;;66.55;39.85;;;;;;;3.03;82.61;96837.54;1780250;77;25855;-72
2022/12/22 07:47:12;;;;;;;64.82;39.03;;;;;;;3.03;82.66;96842.88;1780543;77;26280;-74
2022/12/22 07:52:24;;;;;;;59.03;37.50;;;;;;;3.07;82.69;96841.52;1780645;77;26283;-73
2022/12/22 07:54:50;;;;;;;63.10;39.13;;;;;;;3.07;82.67;96841.52;1780571;77;28273;-73
2022/12/22 07:57:17;;;;;;;68.28;40.17;;;;;;;3.08;82.69;96843.19;1780586;77;26265;-73
2022/12/22 07:59:44;;;;;;;61.02;36.93;;;;;;;3.11;82.71;96849.50;1811454;77;25776;-73
2022/12/22 08:02:11;;;;;;;56.45;35.05;;;;;;;3.11;82.68;96844.67;1785505;78;25743;-73
2022/12/22 08:04:38;;;;;;;69.30;34.60;;;;;;;3.12;82.74;96851.16;1814260;77;25728;-74
2022/12/22 08:07:04;;;;;;;55.20;33.35;;;;;;;3.12;82.70;96851.66;1780659;77;28157;-74
2022/12/22 08:09:31;;;;;;;48.02;31.07;;;;;;;3.14;82.73;96850.45;1780537;77;25743;-74
2022/12/22 08:11:57;;;;;;;45.35;28.80;;;;;;;3.16;82.74;96843.11;1811524;77;25677;-73
2022/12/22 08:14:24;;;;;;;53.60;31.37;;;;;;;3.18;82.70;96841.10;1780649;77;25410;-73
2022/12/22 08:16:51;;;;;;;53.87;30.95;;;;;;;3.18;82.61;96835.77;1811604;77;25730;-75
2022/12/22 08:19:17;;;;;;;44.55;27.95;;;;;;;3.19;82.64;96836.09;1780590;77;27385;-74
2022/12/22 08:21:44;;;;;;;47.67;26.37;;;;;;;3.23;82.66;96837.91;1811309;77;25619;-73
2022/12/22 08:24:11;;;;;;;45.63;24.32;;;;;;;3.21;82.64;96834.08;1780285;77;25762;-73
2022/12/22 08:26:42;;;;;;;43.65;27.27;;;;;;;3.23;82.69;96828.07;1780584;77;26619;-73
2022/12/22 08:29:14;;;;;;;37.33;18.90;;;;;;;3.23;82.68;96820.06;1780677;77;25662;-72
2022/12/22 08:31:41;;;;;;;28.17;17.50;;;;;;;3.26;82.81;96825.02;1755712;80;27380;-76
2022/12/22 08:34:11;;;;;;;55.92;35.23;;;;;;;3.35;83.06;96820.46;1765146;81;25793;-73
2022/12/22 08:36:43;;;;;;;61.58;35.68;;;;;;;3.41;82.98;96816.23;1765204;81;25321;-75
2022/12/22 08:39:11;;;;;;;69.10;41.88;;;;;;;3.45;82.91;96814.87;1765338;80;25784;-73
2022/12/22 08:41:50;;;;;;;51.60;34.85;;;;;;;3.50;82.89;96814.63;1765329;81;26277;-73
2022/12/22 08:44:26;;;;;;;49.38;30.57;;;;;;;3.55;82.86;96816.77;1765075;80;27395;-74
2022/12/22 08:46:55;;;;;;;22.15;14.43;;;;;;;3.59;82.77;96814.90;1734618;82;25870;-73
2022/12/22 08:49:22;;;;;;;30.40;19.07;;;;;;;3.66;82.91;96818.16;1734791;82;25884;-74
2022/12/22 08:51:49;;;;;;;50.80;30.45;;;;;;;3.78;83.13;96818.86;1734775;82;25732;-73
2022/12/22 08:54:16;;;;;;;47.27;30.35;;;;;;;3.87;83.01;96812.91;1723368;82;26812;-73
2022/12/22 08:56:44;;;;;;;33.98;21.00;;;;;;;3.88;82.78;96803.39;1734424;81;28229;-74
2022/12/22 08:59:12;;;;;;;31.55;19.35;;;;;;;3.90;82.71;96801.38;1734693;82;25748;-73
2022/12/22 09:01:42;;;;;;;29.23;16.42;;;;;;;3.93;82.71;96802.85;1734791;81;25747;-74
2022/12/22 09:04:13;;;;;;;28.10;16.55;;;;;;;3.98;82.79;96790.59;1734107;82;25798;-76
2022/12/22 09:06:41;;;;;;;29.25;18.35;;;;;;;4.04;82.79;96790.88;1734540;82;26042;-73
2022/12/22 09:09:11;;;;;;;33.90;19.90;;;;;;;4.13;82.82;96787.08;1699198;83;27556;-72
2022/12/22 09:11:39;;;;;;;30.20;19.02;;;;;;;4.23;82.79;96791.12;1695106;83;25667;-73
2022/12/22 09:14:07;;;;;;;29.18;17.55;;;;;;;4.33;82.76;96784.17;1676274;85;25804;-72
2022/12/22 09:16:34;;;;;;;22.32;13.58;;;;;;;4.44;82.72;96776.17;1694210;83;25831;-75
2022/12/22 09:19:02;;;;;;;21.60;12.63;;;;;;;4.58;82.73;96768.12;1694810;83;25835;-74
2022/12/22 09:21:30;;;;;;;22.48;13.20;;;;;;;4.75;82.68;96774.54;1667171;84;27369;-73
2022/12/22 09:23:57;;;;;;;20.32;11.85;;;;;;;4.90;82.59;96763.28;1687087;84;25856;-74
2022/12/22 09:26:26;;;;;;;24.98;15.40;;;;;;;5.02;82.43;96760.41;1682751;85;25799;-75
2022/12/22 09:28:54;;;;;;;34.85;19.15;;;;;;;5.13;82.34;96754.53;1706837;83;26465;-72
2022/12/22 09:31:22;;;;;;;26.12;15.55;;;;;;;5.23;82.09;96756.36;1695760;84;25792;-73
2022/12/22 09:33:49;;;;;;;27.27;16.05;;;;;;;5.36;82.06;96753.80;1726334;83;27382;-72
2022/12/22 09:36:21;;;;;;;49.30;28.27;;;;;;;5.45;81.74;96749.11;1695765;84;26512;-72
2022/12/22 09:38:47;;;;;;;59.10;34.85;;;;;;;5.53;81.55;96744.14;1721011;83;25877;-72
2022/12/22 09:41:33;;;;;;;52.80;31.90;;;;;;;5.56;81.27;96737.86;1695824;84;25854;-75
2022/12/22 09:44:17;;;;;;;47.62;30.10;;;;;;;5.62;81.17;96734.92;1777933;78;26061;-73
2022/12/22 09:46:44;;;;;;;53.87;32.38;;;;;;;5.69;81.08;96730.42;1788557;78;27451;-73
2022/12/22 09:49:14;;;;;;;49.53;31.52;;;;;;;5.75;80.96;96728.31;1792439;78;25755;-73
2022/12/22 09:51:46;;;;;;;28.25;17.85;;;;;;;5.83;80.84;96723.30;1790317;78;25240;-72
2022/12/22 09:54:14;;;;;;;36.68;21.23;;;;;;;5.91;80.87;96713.30;1755338;78;26242;-75
2022/12/22 09:56:41;;;;;;;35.60;23.05;;;;;;;6.05;80.79;96712.81;1791015;78;25404;-73
2022/12/22 09:59:19;;;;;;;31.33;21.15;;;;;;;6.12;80.56;96710.50;1795250;78;28150;-73
2022/12/22 10:02:13;;;;;;;26.35;17.25;;;;;;;6.22;80.47;96713.30;1776790;78;25645;-73
2022/12/22 10:05:12;;;;;;;26.37;16.82;;;;;;;6.34;80.43;96700.98;1757434;78;25747;-72
2022/12/22 10:07:41;;;;;;;22.27;15.40;;;;;;;6.57;80.50;96697.42;1744341;81;25790;-73
2022/12/22 10:10:26;;;;;;;26.10;15.58;;;;;;;6.88;80.55;96690.67;1724817;83;25734;-72
2022/12/22 10:12:59;;;;;;;25.72;16.30;;;;;;;7.15;80.26;96686.94;1756524;81;27714;-73
2022/12/22 10:15:29;;;;;;;26.40;18.20;;;;;;;7.36;79.80;96681.37;1724817;83;25878;-75
2022/12/22 10:18:09;;;;;;;28.73;18.20;;;;;;;7.52;79.39;96678.22;1752742;81;25808;-73
2022/12/22 10:20:38;;;;;;;25.52;16.05;;;;;;;7.72;79.29;96685.42;1723850;83;25899;-73
2022/12/22 10:23:27;;;;;;;19.50;13.25;;;;;;;7.80;79.06;96691.39;1752915;81;25666;-74
2022/12/22 10:26:02;;;;;;;20.15;14.07;;;;;;;7.89;78.84;96672.64;1731606;82;28299;-73
2022/12/22 10:29:03;;;;;;;18.57;13.18;;;;;;;7.98;78.25;96670.53;1712801;82;25808;-73
2022/12/22 10:31:33;;;;;;;18.35;14.07;;;;;;;8.04;78.26;96665.67;1703747;82;25784;-73
2022/12/22 10:34:16;;;;;;;20.68;13.22;;;;;;;8.14;78.23;96666.55;1724617;82;25752;-73
2022/12/22 10:36:47;;;;;;;;;;;;;;;8.20;78.14;96658.47;1734959;82;25925;-75
2022/12/22 10:39:25;;;;;;;18.73;11.63;;;;;;;8.26;77.75;96657.59;1725658;81;28902;-73
2022/12/22 10:41:55;;;;;;;17.77;9.88;;;;;;;8.30;77.59;96650.76;1645564;86;25737;-73
2022/12/22 10:44:27;;;;;;;19.15;11.00;;;;;;;8.37;77.47;96658.80;1664069;84;25832;-73
2022/12/22 10:46:58;;;;;;;19.55;10.93;;;;;;;8.50;77.39;96653.88;1657548;84;25769;-75
2022/12/22 10:49:38;;;;;;;21.35;11.57;;;;;;;8.60;77.28;96648.31;1600665;88;25874;-73
2022/12/22 10:52:22;;;;;;;19.23;11.08;;;;;;;8.70;77.00;96647.83;1649175;86;28001;-74
2022/12/22 10:54:49;;;;;;;15.70;10.68;;;;;;;8.80;76.88;96649.54;1640668;86;25765;-75
2022/12/22 10:57:21;;;;;;;17.70;10.40;;;;;;;8.89;76.49;96644.19;1625471;86;25844;-73
2022/12/22 10:59:57;;;;;;;17.90;9.88;;;;;;;8.88;76.11;96637.67;1620696;86;32988;-76
2022/12/22 11:02:37;;;;;;;14.63;9.10;;;;;;;8.86;76.07;96626.30;1628060;86;25749;-74
2022/12/22 11:05:10;;;;;;;17.67;10.35;;;;;;;8.81;75.82;96620.77;1633266;87;27570;-74
2022/12/22 11:07:41;;;;;;;15.53;10.28;;;;;;;8.76;75.67;96621.93;1633453;87;25732;-74
2022/12/22 11:10:33;;;;;;;15.13;10.08;;;;;;;8.72;75.39;96622.05;1633465;87;25819;-72
2022/12/22 11:13:17;;;;;;;16.93;10.13;;;;;;;8.72;75.27;96616.16;1633537;87;26926;-73
2022/12/22 11:16:03;;;;;;;17.15;10.48;;;;;;;8.61;75.00;96612.30;1630950;87;25880;-73
2022/12/22 11:18:44;;;;;;;16.62;11.15;;;;;;;8.57;74.79;96612.98;1630913;87;27798;-74
2022/12/22 11:21:31;;;;;;;15.48;10.43;;;;;;;8.54;74.92;96614.75;1581837;90;25935;-74
2022/12/22 11:24:22;;;;;;;19.82;12.33;;;;;;;8.46;74.78;96611.78;1585799;88;25783;-74
2022/12/22 11:27:00;;;;;;;19.15;11.95;;;;;;;8.40;74.71;96611.84;1596555;88;26372;-73
2022/12/22 11:30:06;;;;;;;16.73;10.85;;;;;;;8.35;74.33;96607.09;1595246;88;25364;-74
2022/12/22 11:32:50;;;;;;;17.82;10.53;;;;;;;8.41;74.64;96609.45;1596970;88;27426;-72
2022/12/22 11:35:52;;;;;;;17.00;11.48;;;;;;;8.55;74.70;96593.53;1581702;89;25754;-74
2022/12/22 11:38:39;;;;;;;18.45;10.65;;;;;;;8.70;74.63;96596.70;1631887;85;25854;-74
2022/12/22 11:41:41;;;;;;;21.25;12.90;;;;;;;8.95;74.44;96592.15;1666284;85;25731;-74
2022/12/22 11:44:40;;;;;;;18.92;12.63;;;;;;;9.16;74.18;96582.86;1561286;90;25435;-73
2022/12/22 11:47:21;;;;;;;20.95;13.78;;;;;;;9.42;73.78;96593.07;1581754;88;28072;-74
2022/12/22 11:50:05;;;;;;;22.07;13.43;;;;;;;9.67;73.68;96588.41;1581190;88;25854;-74
2022/12/22 11:53:03;;;;;;;17.73;11.00;;;;;;;9.95;73.25;96589.20;1584610;88;25853;-74
2022/12/22 11:55:44;;;;;;;15.10;10.28;;;;;;;10.14;72.79;96588.14;1569909;90;26493;-73
2022/12/22 11:58:25;;;;;;;16.65;9.18;;;;;;;10.32;72.62;96585.41;1565462;88;25412;-74
2022/12/22 12:01:14;;;;;;;13.05;8.83;;;;;;;10.48;72.32;96589.87;1563553;90;27408;-74
2022/12/22 12:04:21;;;;;;;22.45;13.20;;;;;;;10.66;71.97;96584.38;1550141;91;25823;-74
2022/12/22 12:07:11;;;;;;;19.73;11.45;;;;;;;10.68;71.12;96583.62;1572943;91;26554;-74
2022/12/22 12:10:14;;;;;;;14.55;9.90;;;;;;;10.75;70.82;96582.98;1572975;91;25971;-74
2022/12/22 12:13:13;;;;;;;16.27;10.48;;;;;;;10.78;70.08;96591.97;1508669;94;26000;-75
2022/12/22 12:15:51;;;;;;;15.53;10.05;;;;;;;10.54;70.11;96584.88;1495615;95;28235;-74
2022/12/22 12:18:47;;;;;;;13.48;9.98;;;;;;;10.46;70.38;96581.47;1495328;95;25394;-74
2022/12/22 12:21:25;;;;;;;18.75;12.18;;;;;;;10.39;70.62;96569.94;1505351;93;25919;-74
2022/12/22 12:24:15;;;;;;;15.68;9.70;;;;;;;10.34;70.59;96579.80;1513194;93;25891;-74
2022/12/22 12:27:05;;;;;;;12.78;8.60;;;;;;;10.23;70.43;96573.84;1506126;93;25537;-75
2022/12/22 12:29:49;;;;;;;11.50;8.50;;;;;;;10.13;70.28;96574.36;1511798;93;27411;-76
2022/12/22 12:32:27;;;;;;;15.98;10.80;;;;;;;10.15;70.11;96578.97;1517254;93;25959;-74
2022/12/22 12:35:07;;;;;;;15.88;10.32;;;;;;;10.02;68.96;96572.44;1530534;93;25796;-74
2022/12/22 12:37:37;;;;;;;15.78;10.45;;;;;;;9.89;69.46;96565.88;1478478;95;26535;-73
2022/12/22 12:40:28;;;;;;;17.25;10.20;;;;;;;9.80;69.78;96550.52;1486142;94;25779;-74
2022/12/22 12:42:56;;;;;;;14.00;10.38;;;;;;;9.71;69.72;96540.58;1486243;95;28260;-74
2022/12/22 12:45:45;;;;;;;17.10;10.15;;;;;;;9.65;69.83;96549.58;1492828;95;26373;-74
2022/12/22 12:48:27;;;;;;;16.40;9.85;;;;;;;9.64;69.60;96547.94;1458265;96;25859;-73
2022/12/22 12:50:56;;;;;;;15.43;10.60;;;;;;;9.55;69.80;96549.27;1445890;98;26523;-74
2022/12/22 12:53:28;;;;;;;16.73;10.72;;;;;;;9.47;69.66;96541.50;1399394;101;25932;-74
2022/12/22 12:56:02;;;;;;;20.13;12.23;;;;;;;9.47;69.75;96542.84;1399723;101;26935;-76
2022/12/22 12:58:41;;;;;;;18.80;12.13;;;;;;;9.45;69.72;96538.20;1399312;101;25878;-76
2022/12/22 13:01:27;;;;;;;22.07;13.05;;;;;;;9.43;69.79;96537.59;1398530;101;25940;-76
2022/12/22 13:03:54;;;;;;;17.73;10.85;;;;;;;9.31;69.71;96532.14;1428977;97;25904;-74
2022/12/22 13:06:49;;;;;;;19.45;12.03;;;;;;;9.28;69.79;96525.05;1475323;97;25924;-72
2022/12/22 13:09:26;;;;;;;18.65;12.95;;;;;;;9.19;69.59;96525.85;1483675;92;28305;-74
2022/12/22 13:11:55;;;;;;;19.52;12.55;;;;;;;8.99;69.67;96526.07;1554721;92;25904;-72
2022/12/22 13:14:57;;;;;;;20.05;13.03;;;;;;;8.83;69.43;96521.77;1569618;89;25817;-74
2022/12/22 13:17:49;;;;;;;18.00;12.37;;;;;;;8.72;69.78;96529.23;1589083;90;25915;-73
2022/12/22 13:20:30;;;;;;;18.40;12.88;;;;;;;8.65;69.98;96529.30;1604272;89;26884;-75
2022/12/22 13:22:59;;;;;;;15.88;11.45;;;;;;;8.48;69.78;96524.16;1556721;91;27377;-73
2022/12/22 13:25:42;;;;;;;16.07;10.95;;;;;;;8.37;70.25;96523.52;1528117;91;25764;-74
2022/12/22 13:28:16;;;;;;;15.68;10.82;;;;;;;8.42;70.42;96524.53;1533881;92;25797;-74
2022/12/22 13:30:49;;;;;;;17.40;11.60;;;;;;;8.42;70.34;96530.43;1539166;91;25827;-74
2022/12/22 13:33:20;;;;;;;32.05;23.60;;;;;;;8.44;70.39;96528.34;1502239;93;25817;-75
2022/12/22 13:35:49;;;;;;;21.65;16.48;;;;;;;8.29;70.38;96528.11;1499104;93;27394;-73
2022/12/22 13:38:36;;;;;;;122.35;66.07;;;;;;;8.23;70.35;96527.63;1502289;93;25941;-72
2022/12/22 13:41:19;;;;;;;222.33;118.40;;;;;;;8.16;70.40;96521.48;1498964;93;25869;-74
2022/12/22 13:43:53;;;;;;;56.37;32.00;;;;;;;8.03;70.54;96514.02;1502365;93;32437;-73
2022/12/22 13:46:19;;;;;;;36.60;21.57;;;;;;;7.95;70.52;96518.63;1565222;89;26088;-73
2022/12/22 13:48:49;;;;;;;111.90;61.02;;;;;;;7.89;70.69;96521.34;1551190;91;27373;-74
2022/12/22 13:51:28;;;;;;;79.85;42.23;;;;;;;7.86;70.79;96519.08;1586769;88;25817;-73
2022/12/22 13:54:09;;;;;;;27.17;17.07;;;;;;;7.73;70.39;96526.69;1571288;89;25346;-76
2022/12/22 13:56:52;;;;;;;21.05;12.90;;;;;;;7.63;70.76;96526.84;1538941;91;26529;-75
2022/12/22 13:59:42;;;;;;;21.57;12.58;;;;;;;7.67;71.12;96526.73;1539000;91;25889;-73
2022/12/22 14:02:14;;;;;;;18.77;12.23;;;;;;;7.73;71.23;96525.89;1560976;90;27484;-74
2022/12/22 14:04:46;;;;;;;20.12;12.40;;;;;;;7.76;71.23;96523.58;1514401;93;25859;-73
2022/12/22 14:07:19;;;;;;;39.75;20.17;;;;;;;7.81;71.15;96526.98;1465158;96;26575;-75
2022/12/22 14:09:48;;;;;;;60.60;30.88;;;;;;;7.73;70.84;96516.49;1464048;96;25878;-73
2022/12/22 14:12:24;;;;;;;35.48;22.77;;;;;;;7.63;70.89;96511.56;1464914;96;25859;-73
2022/12/22 14:14:53;;;;;;;23.40;14.65;;;;;;;7.57;70.91;96508.41;1464182;96;27541;-73
2022/12/22 14:17:39;;;;;;;19.37;12.07;;;;;;;7.51;70.92;96507.90;1464763;96;25870;-74
2022/12/22 14:20:25;;;;;;;18.37;12.98;;;;;;;7.44;71.02;96497.20;1480578;95;25916;-73
2022/12/22 14:23:03;;;;;;;15.60;9.80;;;;;;;7.31;70.96;96508.00;1514343;93;25876;-73
2022/12/22 14:25:35;;;;;;;12.73;8.83;;;;;;;7.19;71.06;96515.06;1476397;96;26020;-75
2022/12/22 14:28:06;;;;;;;14.93;9.75;;;;;;;7.15;71.35;96503.91;1474784;96;28365;-75
2022/12/22 14:30:43;;;;;;;15.00;9.98;;;;;;;7.17;71.47;96503.70;1484995;96;25841;-73
2022/12/22 14:36:22;;;;;;;20.20;14.28;;;;;;;7.14;71.58;96510.31;1417242;101;25862;-74
2022/12/22 14:38:56;;;;;;;20.10;13.90;;;;;;;7.12;71.47;96516.95;1405605;101;25884;-75
2022/12/22 14:41:44;;;;;;;16.07;11.88;;;;;;;7.04;71.48;96501.06;1400527;101;27436;-75
2022/12/22 14:44:43;;;;;;;17.32;11.15;;;;;;;6.95;71.33;96499.14;1399601;101;25881;-73
2022/12/22 14:47:17;;;;;;;12.60;8.38;;;;;;;6.82;71.25;96495.97;1372571;103;25936;-73
2022/12/22 14:50:18;;;;;;;14.13;9.80;;;;;;;6.68;71.69;96511.77;1387847;103;25824;-73
2022/12/22 14:52:55;;;;;;;15.88;10.72;;;;;;;6.70;71.88;96508.37;1363399;104;26030;-73
2022/12/22 14:55:32;;;;;;;13.85;8.95;;;;;;;6.63;71.85;96508.91;1376755;104;28132;-72
2022/12/22 14:58:12;;;;;;;14.23;8.03;;;;;;;6.57;71.97;96504.36;1368028;104;25994;-74
2022/12/22 15:00:45;;;;;;;12.05;8.15;;;;;;;6.51;72.09;96497.16;1376634;104;26114;-72
2022/12/22 15:03:33;;;;;;;16.12;9.93;;;;;;;6.55;72.31;96496.20;1305173;108;26512;-75
2022/12/22 15:06:28;;;;;;;12.75;9.30;;;;;;;6.50;71.99;96511.59;1304316;108;26000;-73
2022/12/22 15:09:10;;;;;;;18.32;13.25;;;;;;;6.41;71.91;96508.28;1316689;107;27752;-73
2022/12/22 15:11:51;;;;;;;20.72;12.80;;;;;;;6.33;71.91;96513.86;1320147;107;25919;-75
2022/12/22 15:14:22;;;;;;;27.37;16.93;;;;;;;6.20;71.97;96507.16;1315792;107;25853;-73
2022/12/22 15:16:51;;;;;;;39.08;25.00;;;;;;;6.06;72.15;96517.03;1315720;107;26499;-73
2022/12/22 15:19:22;;;;;;;19.52;13.75;;;;;;;6.00;72.46;96512.52;1315887;109;25529;-73
2022/12/22 15:21:50;;;;;;;19.20;14.40;;;;;;;5.96;72.76;96505.91;1315908;107;27554;-73
2022/12/22 15:24:18;;;;;;;17.50;11.60;;;;;;;6.00;73.03;96507.16;1315833;107;25884;-73
2022/12/22 15:26:46;;;;;;;16.87;10.93;;;;;;;6.01;73.06;96497.27;1324229;107;25911;-75
2022/12/22 15:29:13;;;;;;;17.82;10.70;;;;;;;6.05;72.95;96501.98;1326209;107;25915;-73
2022/12/22 15:31:42;;;;;;;14.30;8.43;;;;;;;6.02;72.75;96497.06;1347887;101;25950;-73
2022/12/22 15:34:24;;;;;;;14.38;8.53;;;;;;;5.95;72.87;96504.25;1437173;96;26919;-74